Time;durP1;ratioP1;P1;durP2;ratioP2;P2;SDS_P1;SDS_P2;PMS_P1;PMS_P2;Temp;Humidity;BMP_temperature;BMP_pressure;BME280_temperature;BME280_humidity;BME280_pressure;Samples;Min_cycle;Max_cycle;Signal;HPM_P1;HPM_P2
2021/09/12 00:02:40;;;;;;;15.20;8.90;;;;;;;15.13;90.87;100719.16;20637989;28;20057;-71
2021/09/12 00:12:43;;;;;;;11.13;7.72;;;;;;;15.01;90.75;100725.66;20667790;28;20054;-71
2021/09/12 00:22:44;;;;;;;11.90;7.88;;;;;;;14.88;90.85;100727.78;20666920;28;20058;-71
2021/09/12 00:32:48;;;;;;;11.95;7.95;;;;;;;14.79;90.22;100712.22;20665636;28;20129;-71
2021/09/12 00:42:50;;;;;;;11.38;8.27;;;;;;;14.70;89.74;100715.09;20666656;28;20062;-70
2021/09/12 00:53:01;;;;;;;12.75;8.93;;;;;;;14.58;89.99;100716.31;20664440;28;20057;-71
2021/09/12 01:03:02;;;;;;;12.20;8.18;;;;;;;14.51;90.91;100703.34;20663704;28;20412;-71
2021/09/12 01:13:05;;;;;;;14.55;8.43;;;;;;;14.36;90.88;100700.16;20662759;28;20046;-70
2021/09/12 01:23:07;;;;;;;11.52;7.80;;;;;;;14.29;89.81;100713.56;20661708;28;20046;-71
2021/09/12 01:33:08;;;;;;;11.95;7.97;;;;;;;14.17;91.05;100700.69;20643735;28;20538;-71
2021/09/12 01:43:11;;;;;;;11.85;7.90;;;;;;;14.14;90.18;100708.69;20661358;28;20054;-71
2021/09/12 01:53:12;;;;;;;12.80;7.53;;;;;;;14.01;90.76;100690.56;20661513;28;20058;-70
2021/09/12 02:03:14;;;;;;;11.75;6.75;;;;;;;13.95;90.29;100681.97;20659669;28;20046;-71
2021/09/12 02:13:16;;;;;;;9.93;7.20;;;;;;;13.80;89.96;100688.47;20658339;28;20050;-71
2021/09/12 02:23:18;;;;;;;9.38;6.40;;;;;;;13.72;89.54;100686.03;20658698;28;20054;-71
2021/09/12 02:33:20;;;;;;;8.10;5.55;;;;;;;13.66;89.99;100695.84;20657147;28;20342;-71
2021/09/12 02:43:21;;;;;;;9.98;6.20;;;;;;;13.55;89.46;100686.41;20657160;28;20042;-71
2021/09/12 02:53:23;;;;;;;9.93;6.47;;;;;;;13.42;90.26;100687.59;20657272;28;20104;-71
2021/09/12 03:03:25;;;;;;;9.10;6.43;;;;;;;13.45;89.79;100687.53;20655815;28;20416;-71
2021/09/12 03:13:27;;;;;;;11.10;6.45;;;;;;;13.29;89.49;100694.03;20655832;28;20050;-71
2021/09/12 03:23:28;;;;;;;9.30;6.10;;;;;;;13.24;88.88;100686.25;20655672;28;20046;-71
2021/09/12 03:33:30;;;;;;;8.90;5.95;;;;;;;13.10;88.99;100681.25;20655096;28;20047;-71
2021/09/12 03:43:32;;;;;;;9.55;6.72;;;;;;;13.07;89.73;100681.31;20665257;28;20050;-71
2021/09/12 03:53:34;;;;;;;12.57;6.15;;;;;;;13.00;90.04;100682.34;20668696;28;20054;-71
2021/09/12 04:03:36;;;;;;;9.02;6.40;;;;;;;13.00;90.66;100679.72;20669120;28;20758;-71
2021/09/12 04:13:38;;;;;;;8.40;5.63;;;;;;;12.99;89.93;100680.63;20667615;28;20050;-70
2021/09/12 04:23:40;;;;;;;9.20;5.78;;;;;;;12.87;89.67;100687.91;20667112;28;20422;-70
2021/09/12 04:33:41;;;;;;;10.98;6.30;;;;;;;12.79;89.59;100695.91;20666002;28;20056;-70
2021/09/12 04:43:43;;;;;;;8.80;5.22;;;;;;;12.67;89.37;100696.19;20665696;28;20053;-70
2021/09/12 04:53:45;;;;;;;9.57;5.18;;;;;;;12.56;88.55;100699.03;20665021;28;20047;-70
2021/09/12 05:03:47;;;;;;;6.70;4.40;;;;;;;12.47;89.56;100705.31;20646940;28;20460;-70
2021/09/12 05:13:49;;;;;;;7.55;4.70;;;;;;;12.51;88.82;100707.00;20663009;28;20088;-70
2021/09/12 05:23:51;;;;;;;9.63;5.03;;;;;;;12.54;88.81;100701.66;20661300;28;20117;-70
2021/09/12 05:33:53;;;;;;;6.57;5.07;;;;;;;12.59;89.11;100691.94;20661448;28;20050;-70
2021/09/12 05:43:55;;;;;;;7.95;5.53;;;;;;;12.74;89.12;100708.28;20661807;28;20054;-70
2021/09/12 05:53:57;;;;;;;7.65;5.10;;;;;;;12.84;89.11;100715.97;20660305;28;20054;-70
2021/09/12 06:03:58;;;;;;;10.80;4.88;;;;;;;12.94;89.25;100713.16;20659397;28;20428;-70
2021/09/12 06:14:01;;;;;;;8.25;4.68;;;;;;;13.16;88.43;100714.44;20658542;28;20068;-70
2021/09/12 06:24:03;;;;;;;6.53;4.50;;;;;;;13.35;88.55;100717.56;20639793;28;20054;-70
2021/09/12 06:34:05;;;;;;;7.90;4.90;;;;;;;13.56;88.31;100722.34;20637193;28;20046;-70
2021/09/12 06:44:10;;;;;;;6.82;5.10;;;;;;;13.81;87.54;100721.78;20637863;28;20074;-70
2021/09/12 06:54:11;;;;;;;5.88;4.03;;;;;;;14.13;87.13;100728.88;20654287;28;20047;-70
2021/09/12 07:04:13;;;;;;;6.43;4.32;;;;;;;14.46;86.41;100723.66;20660806;28;20046;-70
2021/09/12 07:14:15;;;;;;;8.13;4.53;;;;;;;14.71;85.26;100723.88;20653919;28;1462022;-70
2021/09/12 07:24:17;;;;;;;7.68;5.03;;;;;;;14.99;84.51;100722.19;20705347;28;20050;-71
2021/09/12 07:34:19;;;;;;;7.40;5.00;;;;;;;15.40;85.20;100728.03;20671249;28;20108;-70
2021/09/12 07:44:20;;;;;;;9.45;5.65;;;;;;;15.69;86.37;100731.56;20741903;28;20342;-70
2021/09/12 07:54:22;;;;;;;7.60;5.15;;;;;;;15.98;85.04;100736.78;20751702;28;20108;-71
2021/09/12 08:04:24;;;;;;;6.97;4.80;;;;;;;16.37;81.72;100733.72;20750746;28;20050;-71
2021/09/12 08:14:26;;;;;;;7.70;4.70;;;;;;;16.68;82.81;100733.53;20712545;28;20054;-71
2021/09/12 08:24:28;;;;;;;7.03;4.20;;;;;;;16.88;81.54;100740.78;20668524;28;20042;-71
2021/09/12 08:34:29;;;;;;;6.72;3.30;;;;;;;17.09;77.52;100724.09;20666703;28;20117;-72
2021/09/12 08:44:34;;;;;;;9.23;4.85;;;;;;;17.79;79.78;100738.22;20667417;28;20043;-71
2021/09/12 08:54:36;;;;;;;7.50;4.47;;;;;;;18.09;77.33;100734.31;20666229;28;20066;-70
2021/09/12 09:04:38;;;;;;;6.43;3.38;;;;;;;18.32;76.93;100719.25;20664602;28;20046;-71
2021/09/12 09:14:40;;;;;;;6.07;2.83;;;;;;;18.56;72.61;100723.47;20704610;28;20042;-71
2021/09/12 09:24:42;;;;;;;8.13;2.90;;;;;;;19.07;69.30;100716.81;20746588;28;20604;-70
2021/09/12 09:34:45;;;;;;;5.20;3.05;;;;;;;19.43;68.44;100719.53;20743650;28;20046;-71
2021/09/12 09:44:57;;;;;;;4.93;2.72;;;;;;;19.90;65.30;100718.22;20744060;28;20421;-71
2021/09/12 09:54:59;;;;;;;4.20;2.20;;;;;;;20.18;63.48;100710.59;20741308;28;20057;-71
2021/09/12 10:05:04;;;;;;;5.85;2.58;;;;;;;20.46;62.50;100698.53;20723848;28;20092;-71
2021/09/12 10:15:09;;;;;;;5.15;2.78;;;;;;;20.82;59.84;100685.09;20697475;28;20125;-71
2021/09/12 10:25:12;;;;;;;3.92;2.03;;;;;;;20.98;60.69;100674.47;20660104;28;20046;-71
2021/09/12 10:35:20;;;;;;;3.92;2.33;;;;;;;21.33;58.72;100674.38;20658985;28;20101;-71
2021/09/12 10:45:26;;;;;;;5.82;2.58;;;;;;;21.51;57.54;100662.66;20641950;28;20050;-71
2021/09/12 10:55:29;;;;;;;4.68;2.00;;;;;;;21.72;56.02;100650.78;20642732;28;20555;-71
2021/09/12 11:05:30;;;;;;;7.22;2.30;;;;;;;21.89;56.33;100648.94;20640883;28;20514;-71
2021/09/12 11:15:33;;;;;;;6.18;2.85;;;;;;;21.64;56.63;100645.03;20705568;28;20050;-71
2021/09/12 11:25:36;;;;;;;3.42;2.00;;;;;;;21.50;56.05;100634.31;20739764;28;20046;-71
2021/09/12 11:35:38;;;;;;;3.60;2.00;;;;;;;21.52;58.01;100622.63;20737723;28;20046;-72
2021/09/12 11:45:41;;;;;;;6.10;2.43;;;;;;;21.96;54.37;100611.16;20738582;28;20096;-72
2021/09/12 11:55:43;;;;;;;4.70;2.13;;;;;;;21.84;54.45;100603.03;20739409;28;20124;-73
2021/09/12 12:05:46;;;;;;;4.57;2.05;;;;;;;22.10;56.15;100602.34;20746120;28;20042;-70
2021/09/12 12:15:48;;;;;;;3.25;1.75;;;;;;;22.44;53.41;100589.66;20701262;28;20524;-71
2021/09/12 12:25:51;;;;;;;3.47;1.80;;;;;;;22.30;55.54;100577.16;20668620;28;20073;-71
2021/09/12 12:36:11;;;;;;;3.63;1.73;;;;;;;22.54;55.44;100580.09;20667106;28;20438;-70
2021/09/12 12:46:13;;;;;;;4.22;1.70;;;;;;;22.70;53.35;100566.66;20668221;28;20050;-71
2021/09/12 12:56:17;;;;;;;3.88;1.73;;;;;;;23.36;52.25;100546.38;20666436;28;20074;-72
2021/09/12 13:06:21;;;;;;;3.85;1.98;;;;;;;23.40;51.12;100532.69;20664907;28;20105;-71
2021/09/12 13:16:22;;;;;;;3.42;1.67;;;;;;;23.80;50.89;100525.53;20717136;28;20054;-72
2021/09/12 13:26:24;;;;;;;4.43;1.83;;;;;;;23.59;49.94;100516.28;20743898;28;20046;-72
2021/09/12 13:36:25;;;;;;;2.63;1.67;;;;;;;23.50;50.72;100501.72;20743691;28;20404;-71
2021/09/12 13:46:27;;;;;;;4.55;1.85;;;;;;;23.65;49.17;100494.50;20743576;28;20084;-72
2021/09/12 13:56:29;;;;;;;5.53;1.88;;;;;;;23.44;49.29;100490.59;20743160;28;20077;-71
2021/09/12 14:06:32;;;;;;;3.72;1.50;;;;;;;23.01;49.25;100489.00;20743262;28;20046;-71
2021/09/12 14:16:34;;;;;;;3.78;2.15;;;;;;;23.09;49.04;100484.94;20685972;28;20042;-72
2021/09/12 14:26:35;;;;;;;3.60;1.63;;;;;;;23.29;49.01;100471.97;20659483;28;20424;-72
2021/09/12 14:36:37;;;;;;;4.03;1.95;;;;;;;23.27;49.29;100457.84;20641963;28;20050;-72
2021/09/12 14:46:39;;;;;;;3.50;2.20;;;;;;;23.27;48.83;100457.00;20641166;28;20046;-72
2021/09/12 14:56:41;;;;;;;3.03;1.35;;;;;;;23.25;50.54;100446.44;20660868;28;20050;-71
2021/09/12 15:06:43;;;;;;;3.22;1.50;;;;;;;23.04;49.40;100445.19;20657957;28;20112;-72
2021/09/12 15:16:45;;;;;;;3.22;1.75;;;;;;;22.99;49.37;100442.81;20714059;28;20492;-69
2021/09/12 15:26:46;;;;;;;4.70;1.70;;;;;;;22.83;51.00;100430.56;20738683;28;20068;-72
2021/09/12 15:36:53;;;;;;;4.10;1.70;;;;;;;22.82;50.95;100431.53;20743682;28;20516;-72
2021/09/12 15:46:55;;;;;;;3.92;1.92;;;;;;;22.89;50.89;100435.53;20752428;28;20046;-73
2021/09/12 15:56:58;;;;;;;3.03;1.70;;;;;;;22.64;50.87;100423.78;20735545;28;20053;-72
2021/09/12 16:07:00;;;;;;;14.77;6.28;;;;;;;22.54;51.55;100430.66;20754812;28;20062;-72
2021/09/12 16:17:02;;;;;;;5.50;2.17;;;;;;;22.58;51.66;100434.84;20692001;28;20101;-72
2021/09/12 16:27:04;;;;;;;3.58;1.80;;;;;;;22.45;51.93;100420.59;20668543;28;20468;-72
2021/09/12 16:37:10;;;;;;;11.50;4.03;;;;;;;22.29;52.45;100415.41;20668145;28;20133;-69
2021/09/12 16:47:17;;;;;;;4.07;2.00;;;;;;;22.01;53.74;100424.25;20665492;28;20189;-73
2021/09/12 16:57:19;;;;;;;3.58;1.80;;;;;;;21.66;58.47;100426.44;20666309;28;20497;-73
2021/09/12 17:07:21;;;;;;;4.63;2.00;;;;;;;21.32;61.89;100427.63;20664717;28;20042;-73
2021/09/12 17:17:23;;;;;;;6.28;2.50;;;;;;;21.48;60.02;100423.09;20726557;28;20439;-72
2021/09/12 17:27:24;;;;;;;3.38;1.98;;;;;;;20.98;62.88;100432.25;20744917;28;20050;-70
2021/09/12 17:37:26;;;;;;;4.30;2.40;;;;;;;20.43;65.77;100432.72;20745125;28;20115;-70
2021/09/12 17:47:28;;;;;;;3.85;2.38;;;;;;;19.91;68.10;100443.53;20744283;28;20046;-70
2021/09/12 17:57:29;;;;;;;6.47;2.67;;;;;;;19.69;69.44;100441.16;20742319;28;20045;-70
2021/09/12 18:07:31;;;;;;;7.32;2.90;;;;;;;19.18;70.23;100450.88;20741702;28;20112;-70
2021/09/12 18:17:34;;;;;;;4.25;2.80;;;;;;;19.07;70.91;100467.34;20677220;28;20050;-70
2021/09/12 18:27:36;;;;;;;5.13;2.97;;;;;;;18.84;73.24;100465.81;20660064;28;20532;-72
2021/09/12 18:37:40;;;;;;;5.85;3.10;;;;;;;18.62;73.67;100473.91;20658584;28;20089;-73
2021/09/12 18:47:42;;;;;;;5.73;2.90;;;;;;;18.18;74.93;100484.81;20657784;28;20058;-72
2021/09/12 18:57:44;;;;;;;4.63;3.10;;;;;;;18.01;75.77;100495.28;20640740;28;20704;-72
2021/09/12 19:07:46;;;;;;;5.70;3.13;;;;;;;17.79;76.68;100507.78;20659155;28;20053;-73
2021/09/12 19:17:48;;;;;;;6.18;3.20;;;;;;;17.64;77.23;100515.44;20739346;28;20053;-72
2021/09/12 19:27:52;;;;;;;5.00;3.17;;;;;;;17.35;78.50;100529.06;20755405;28;20458;-72
2021/09/12 19:37:55;;;;;;;;;;;;;;;17.17;79.00;100526.22;20753862;28;20791;-73
2021/09/12 19:47:57;;;;;;;6.43;3.33;;;;;;;17.13;78.65;100532.56;20753337;28;20379;-73
2021/09/12 19:58:00;;;;;;;7.10;3.30;;;;;;;16.96;79.01;100537.69;20752360;28;20149;-73
2021/09/12 20:08:02;;;;;;;5.20;3.22;;;;;;;16.99;78.84;100548.13;20750646;28;20042;-73
2021/09/12 20:18:04;;;;;;;4.90;3.20;;;;;;;16.87;79.22;100546.84;20750028;28;20100;-72
2021/09/12 20:28:05;;;;;;;6.22;3.50;;;;;;;16.79;79.88;100553.34;20748973;28;20053;-72
2021/09/12 20:38:07;;;;;;;6.95;4.15;;;;;;;16.71;79.76;100563.31;20749406;28;20046;-72
2021/09/12 20:48:09;;;;;;;6.80;4.03;;;;;;;16.55;79.98;100558.63;20749070;28;20057;-72
2021/09/12 20:58:11;;;;;;;6.15;3.47;;;;;;;16.36;81.37;100565.53;20747921;28;20100;-72
2021/09/12 21:08:13;;;;;;;6.95;4.18;;;;;;;16.24;81.20;100566.84;20756165;28;20424;-72
2021/09/12 21:18:14;;;;;;;6.70;4.00;;;;;;;16.17;81.01;100574.13;20683734;28;20471;-72
2021/09/12 21:28:16;;;;;;;6.63;3.53;;;;;;;16.12;80.36;100580.47;20664093;28;20051;-72
2021/09/12 21:38:18;;;;;;;7.00;4.00;;;;;;;16.05;81.56;100578.97;20661797;28;20520;-72
2021/09/12 21:48:20;;;;;;;6.65;3.40;;;;;;;15.99;81.91;100587.97;20663185;28;20552;-72
2021/09/12 21:58:22;;;;;;;7.03;3.85;;;;;;;15.88;82.16;100590.13;20661236;28;20461;-72
2021/09/12 22:08:24;;;;;;;6.95;4.47;;;;;;;15.71;82.39;100601.25;20659522;28;20046;-72
2021/09/12 22:18:25;;;;;;;6.30;4.32;;;;;;;15.69;81.95;100592.53;20659229;28;20120;-72
2021/09/12 22:28:27;;;;;;;8.07;4.38;;;;;;;15.60;82.69;100580.47;20658446;28;20413;-71
2021/09/12 22:38:29;;;;;;;7.93;4.47;;;;;;;15.48;83.17;100588.81;20656247;28;20050;-71
2021/09/12 22:48:31;;;;;;;6.15;3.85;;;;;;;15.46;82.04;100595.91;20656855;28;20164;-72
2021/09/12 22:58:33;;;;;;;7.95;4.35;;;;;;;15.34;82.38;100597.16;20656542;28;20062;-71
2021/09/12 23:08:35;;;;;;;7.53;4.47;;;;;;;15.20;82.72;100598.53;20655639;28;20050;-72
2021/09/12 23:18:37;;;;;;;8.20;4.88;;;;;;;15.08;83.18;100600.59;20655734;28;20109;-71
2021/09/12 23:28:39;;;;;;;6.30;4.30;;;;;;;15.08;83.94;100595.34;20656055;28;20477;-71
2021/09/12 23:38:40;;;;;;;7.00;4.82;;;;;;;15.07;83.30;100601.53;20653450;28;20108;-72
2021/09/12 23:48:42;;;;;;;6.70;4.57;;;;;;;15.02;83.25;100594.69;20654798;28;20046;-71
2021/09/12 23:58:44;;;;;;;7.57;5.03;;;;;;;14.94;83.48;100594.91;20661760;28;20113;-72
